Latest Coastal Weather Observations for Truscott

IDD60701

Issued at 2:01 pm CST Saturday 25 February 2017 (issued every 10 minutes, with the page automatically refreshed every 10 minutes)

About coastal observations | Map of coastal stations | Coastal observations for NT | Marine services | Other Formats
Station Details ID: 001020 Name: TRUSCOTT Lat: -14.09 Lon: 126.39 Height: 51.0 m
Data from the previous 72 hours. | See also: Recent months at Truscott
Date/Time
CST
Temp
°C
Wind Pressure Rain since
9am
mm
Weather Cloud Vis
km
Sea
Height
m
Swell
Dir  Spd
kts
Gust
kts
hPa Trend Height
m
Period
s
Dir
25/02:00pm 30.7 N 8 12 1009.1 - 0.0 - Partly cloudy 10 - - - -
25/01:30pm 30.3 N 9 12 1009.1 - 0.0 - Partly cloudy 10 - - - -
25/01:00pm 30.4 N 7 12 1010.0 - 0.0 - Partly cloudy 10 - - - -
25/12:30pm 30.1 N 8 11 1010.4 - 0.0 - Partly cloudy 10 - - - -
25/12:00pm 30.6 NNW 7 11 1010.3 - 0.0 - Partly cloudy 10 - - - -
25/11:30am 30.2 NNW 7 11 1010.4 - 0.0 - Partly cloudy 10 - - - -
25/11:00am 29.8 NNW 8 10 1010.5 - 0.0 - Partly cloudy 10 - - - -
25/10:30am 29.8 NNW 7 9 1010.1 - 0.0 - Partly cloudy 10 - - - -
25/10:00am 29.8 N 6 9 1010.5 - 0.0 - Partly cloudy 10 - - - -
25/09:00am 29.0 N 5 7 1010.0 - 0.0 - Partly cloudy 10 - - - -
25/08:30am 28.7 NNW 3 5 1009.8 - 0.0 - Partly cloudy 10 - - - -
25/08:00am 27.9 NNW 1 4 1009.6 - 0.0 - - 10 - - - -
25/07:30am 27.4 CALM 0 0 1009.1 - 0.0 - - 10 - - - -
25/07:00am 27.4 NNW 3 4 1009.4 - 0.0 - - 10 - - - -
25/06:30am 27.5 NNW 3 4 1009.0 - 0.0 - - 10 - - - -
25/06:00am 28.0 WNW 4 7 1008.9 - 0.0 - Partly cloudy 10 - - - -
25/05:30am 28.2 W 4 5 1008.7 - 0.0 - Partly cloudy 10 - - - -
25/05:00am 28.3 W 6 8 1008.4 - 0.0 - Partly cloudy 10 - - - -
25/04:30am 28.3 NW 5 7 1008.1 - 0.0 - Partly cloudy 10 - - - -
25/04:00am 28.2 NNW 4 6 1008.3 - 0.0 - Partly cloudy 10 - - - -
25/03:30am 28.2 NNW 4 7 1008.4 - 0.0 - Partly cloudy 10 - - - -
25/03:00am 28.1 NW 4 6 1008.6 - 0.0 - - 10 - - - -
25/02:30am 28.3 NNW 5 9 1008.7 - 0.0 - - 10 - - - -
25/02:00am 28.4 NNW 6 10 1009.0 - 0.0 - Partly cloudy 10 - - - -
25/01:30am 28.6 NW 6 8 1008.7 - 0.0 - Partly cloudy 10 - - - -
25/01:00am 28.6 NNW 7 10 1009.1 - 0.0 - Partly cloudy 10 - - - -
25/12:00am 28.8 NW 6 10 1009.7 - 0.0 - Partly cloudy 10 - - - -
 
Date/Time
CST
Temp
°C
Wind Pressure Rain since
9am
mm
Weather Cloud Vis
km
Sea
Height
m
Swell
Dir  Spd
kts
Gust
kts
hPa Trend Height
m
Period
s
Dir
24/11:00pm 29.0 NNW 7 11 1009.6 - 0.0 - Partly cloudy 10 - - - -
24/10:30pm 29.2 NNW 7 9 1009.2 - 0.0 - Partly cloudy 10 - - - -
24/10:00pm 29.2 WNW 6 9 1009.0 - 0.0 - Partly cloudy 10 - - - -
24/08:30pm 29.9 W 6 8 1008.0 - 0.0 - - 10 - - - -
24/08:00pm 30.4 W 9 12 1007.9 - 0.0 - Partly cloudy 10 - - - -
24/07:30pm 30.7 W 8 12 1007.3 - 0.0 - Partly cloudy 10 - - - -
24/07:00pm 31.9 WNW 8 13 1007.4 - 0.0 - - 10 - - - -
24/06:30pm 32.3 WNW 8 13 1007.1 - 0.0 - - 10 - - - -
24/06:00pm 32.8 WNW 8 11 1006.8 - 0.0 - - 10 - - - -
24/05:30pm 33.4 WNW 9 13 1006.7 - 0.0 - - 10 - - - -
24/05:00pm 34.3 WNW 8 11 1006.4 - 0.0 - - 10 - - - -
24/04:30pm 33.8 NW 8 11 1005.9 - 0.0 - - 10 - - - -
24/04:00pm 34.2 NW 7 11 1006.5 - 0.0 - - 10 - - - -
24/03:30pm 33.9 WNW 9 13 1007.0 - 0.0 - - 10 - - - -
24/03:00pm 33.9 WNW 9 12 1007.3 - 0.0 - - 10 - - - -
24/02:30pm 34.1 WNW 8 13 1007.7 - 0.0 - - 10 - - - -
24/02:00pm 33.7 W 8 11 1008.1 - 0.0 - Partly cloudy 10 - - - -
24/01:30pm 33.1 WNW 8 12 1008.2 - 0.0 - - 10 - - - -
24/01:00pm 33.2 W 7 12 1009.1 - 0.0 - - 10 - - - -
24/12:30pm 33.1 W 9 13 1009.3 - 0.0 - - 10 - - - -
24/12:00pm 33.0 WSW 8 11 1009.8 - 0.0 - - 10 - - - -
24/11:30am 32.6 SW 9 12 1010.2 - 0.0 - - 10 - - - -
24/11:00am 31.8 SW 8 11 1010.4 - 0.0 - - 10 - - - -
24/10:30am 31.4 WSW 10 14 1010.2 - 0.0 - - 10 - - - -
24/10:00am 30.6 WSW 11 14 1010.8 - 0.0 - Partly cloudy 10 - - - -
24/09:30am 29.9 WSW 10 16 1010.8 - 0.0 - Partly cloudy 10 - - - -
24/09:00am 29.5 WSW 8 13 1010.9 - 0.0 - Partly cloudy 10 - - - -
24/08:30am 28.7 SW 7 10 1010.7 - 0.0 - Partly cloudy 10 - - - -
24/08:00am 28.1 WSW 4 5 1010.3 - 0.0 - Partly cloudy 10 - - - -
24/07:30am 27.5 W 4 6 1009.7 - 0.0 - Partly cloudy 10 - - - -
24/07:00am 27.5 SW 3 4 1010.0 - 0.0 - Partly cloudy 10 - - - -
24/06:30am 27.4 WSW 6 9 1009.5 - 0.0 - Partly cloudy 10 - - - -
24/06:00am 27.3 W 5 7 1008.9 - 0.0 - - 10 - - - -
24/05:30am 27.3 W 5 8 1008.8 - 0.0 - - 10 - - - -
24/05:00am 27.5 WSW 7 10 1008.8 - 0.0 - - 10 - - - -
24/04:30am 27.6 WSW 6 8 1008.6 - 0.0 - - 10 - - - -
24/04:00am 27.8 WSW 6 8 1008.9 - 0.0 - - 10 - - - -
24/03:30am 27.9 WSW 7 10 1009.0 - 0.0 - - 10 - - - -
24/03:00am 28.1 WSW 6 8 1009.3 - 0.0 - - 10 - - - -
24/02:30am 28.2 WSW 6 9 1009.6 - 0.0 - - 10 - - - -
24/02:00am 28.1 W 6 8 1009.8 - 0.0 - - 10 - - - -
24/01:30am 28.1 W 5 7 1009.7 - 0.0 - - 10 - - - -
24/01:00am 28.1 W 5 7 1010.1 - 0.0 - - 10 - - - -
24/12:30am 28.2 W 5 8 1010.2 - 0.0 - - 10 - - - -
24/12:00am 28.2 WSW 6 8 1010.3 - 0.0 - - 10 - - - -
 
Date/Time
CST
Temp
°C
Wind Pressure Rain since
9am
mm
Weather Cloud Vis
km
Sea
Height
m
Swell
Dir  Spd
kts
Gust
kts
hPa Trend Height
m
Period
s
Dir
23/11:30pm 28.2 WSW 5 7 1010.4 - 0.0 - - 10 - - - -
23/11:00pm 28.3 WSW 6 7 1010.4 - 0.0 - - 10 - - - -
23/10:30pm 28.5 WSW 4 7 1009.9 - 0.0 - - 10 - - - -
23/10:00pm 28.8 WSW 5 7 1010.4 - 0.0 - - 10 - - - -
23/09:30pm 29.0 WSW 6 7 1009.8 - 0.0 - - 10 - - - -
23/09:00pm 29.8 WSW 6 7 1009.4 - 0.0 - - 10 - - - -
23/08:30pm 30.2 W 4 6 1009.2 - 0.0 - - 10 - - - -
23/08:00pm 30.4 WNW 3 4 1008.9 - 0.0 - - 10 - - - -
23/07:30pm 31.0 WNW 4 6 1008.1 - 0.0 - - 10 - - - -
23/07:00pm 32.7 NNW 4 6 1008.2 - 0.0 - - 10 - - - -
23/06:30pm 33.1 NW 5 7 1007.8 - 0.0 - - 10 - - - -
23/06:00pm 33.2 NNW 7 11 1007.4 - 0.0 - - 10 - - - -
23/05:30pm 33.9 N 8 11 1007.1 - 0.0 - - 10 - - - -
23/05:00pm 34.6 N 6 10 1007.0 - 0.0 - - 10 - - - -
23/04:30pm 34.4 N 7 11 1006.8 - 0.0 - - 10 - - - -
23/04:00pm 34.7 NNW 7 9 1007.3 - 0.0 - - 10 - - - -
23/03:30pm 34.7 N 7 9 1007.4 - 0.0 - - 10 - - - -
23/03:00pm 34.6 NW 6 9 1007.5 - 0.0 - - 10 - - - -
23/02:30pm 34.5 WNW 6 9 1007.8 - 0.0 - - 10 - - - -
23/02:00pm 34.3 NW 6 8 1008.1 - 0.0 - - 10 - - - -
23/01:30pm 34.3 SSW 5 8 1008.0 - 0.0 - - 10 - - - -
23/01:00pm 33.5 NW 6 9 1008.9 - 0.0 - - 10 - - - -
23/12:30pm 33.5 SSW 4 8 1009.3 - 0.0 - - 10 - - - -
23/12:00pm 33.7 SW 4 8 1009.7 - 0.0 - - 10 - - - -
23/11:30am 32.9 WSW 3 6 1010.1 - 0.0 - - 10 - - - -
23/11:00am 32.3 SSW 3 6 1010.3 - 0.0 - - 10 - - - -
23/10:30am 31.1 S 3 7 1010.1 - 0.0 - - 10 - - - -
23/10:00am 29.8 SW 5 7 1010.7 - 0.0 - - 10 - - - -
23/09:30am 29.5 SW 5 9 1010.3 - 0.0 - - 10 - - - -
23/09:00am 28.4 SW 7 9 1010.3 - 0.0 - - 10 - - - -
23/08:30am 27.7 SW 6 8 1010.2 - 0.0 - - 10 - - - -
23/08:00am 26.9 SW 5 7 1010.0 - 0.0 - - 10 - - - -
23/07:30am 26.0 SSW 5 6 1009.6 - 0.0 - - 10 - - - -
23/07:00am 26.3 SW 4 7 1009.4 - 0.0 - - 10 - - - -
23/06:30am 25.8 SW 5 6 1009.1 - 0.0 - - 10 - - - -
23/06:00am 26.0 SW 5 6 1009.1 - 0.0 - - 10 - - - -
23/05:30am 26.4 SW 3 6 1008.9 - 0.0 - - 10 - - - -
23/05:00am 26.9 SW 6 8 1008.9 - 0.0 - - 10 - - - -
23/04:30am 26.8 SW 5 7 1008.8 - 0.0 - - 10 - - - -
23/04:00am 27.0 WSW 7 9 1008.7 - 0.0 - - 10 - - - -
23/03:30am 27.2 WSW 7 11 1008.9 - 0.0 - - 10 - - - -
23/03:00am 27.3 WSW 6 8 1009.3 - 0.0 - - 10 - - - -
23/02:30am 27.5 WSW 6 8 1009.5 - 0.0 - - 10 - - - -
23/02:00am 27.7 WSW 7 9 1009.9 - 0.0 - - 10 - - - -
23/01:30am 27.7 WSW 5 7 1010.3 - 0.0 - - 10 - - - -
23/01:00am 27.9 WSW 5 7 1010.8 - 0.0 - - 10 - - - -
23/12:30am 27.8 W 5 6 1010.9 - 0.0 - - 10 - - - -
23/12:00am 27.7 W 4 5 1011.2 - 0.0 - - 10 - - - -
 
Date/Time
CST
Temp
°C
Wind Pressure Rain since
9am
mm
Weather Cloud Vis
km
Sea
Height
m
Swell
Dir  Spd
kts
Gust
kts
hPa Trend Height
m
Period
s
Dir
22/11:30pm 27.9 W 5 6 1011.5 - 0.0 - - 10 - - - -
22/11:00pm 27.4 NW 4 5 1011.4 - 0.0 - - 10 - - - -
22/10:30pm 27.5 NNW 4 5 1011.2 - 0.0 - - 10 - - - -
22/10:00pm 27.6 NW 4 5 1010.8 - 0.0 - - 10 - - - -
22/09:30pm 28.1 NW 4 7 1010.4 - 0.0 - - 10 - - - -
22/09:00pm 28.8 WNW 5 8 1010.0 - 0.0 - - 10 - - - -
22/08:30pm 29.0 W 7 11 1009.2 - 0.0 - - 10 - - - -
22/08:00pm 29.5 W 8 13 1008.9 - 0.0 - - 10 - - - -
22/07:30pm 30.0 W 9 12 1009.0 - 0.0 - - 10 - - - -
22/07:00pm 30.6 WNW 9 13 1008.8 - 0.0 - - 10 - - - -
22/06:30pm 31.2 WNW 9 13 1008.5 - 0.0 - - 10 - - - -
22/06:00pm 31.1 WNW 10 14 1008.2 - 0.0 - - 10 - - - -
22/05:30pm 32.0 NW 8 13 1008.1 - 0.0 - - 10 - - - -
22/05:00pm 32.2 NW 8 12 1008.2 - 0.0 - - 10 - - - -
22/04:30pm 32.4 NW 9 12 1008.4 - 0.0 - - 10 - - - -
22/04:00pm 32.6 WNW 9 12 1008.6 - 0.0 - - 10 - - - -

Other Formats:

Comma delimited format used in spreadsheet applications
http://www.bom.gov.au/fwo/IDD60701/IDD60701.95101.axf

JavaScript Object Notation format (JSON) in row-major order
http://www.bom.gov.au/fwo/IDD60701/IDD60701.95101.json